Andice, Texas
Current Conditions -  °F | °C
As of 6:50 PM on Monday 26 Jan 2015 (Local Time) from KGTU Reporting Station
Clear Clear  
Wind Chill: 61°   Ceiling: Unl
Heat Index: 61°   Visibility: 10mi
Dew Point: 39°   Wind: 5mph
Humidity: 45%   Direction: 250°WSW
Pressure: 30.15"   Gusts: NA
Location:  30.6575°N, 97.7523°W
Report Text: KGTU 270050Z 25004KT 10SM CLR 16/04 A3015
Loading
Personal Weather Stations






























Interactive Weather Map New forecast layout! Learn more

10-Day Weather Forecast

Advertisements
Track Severe Weather on mobile